Terminal Aerodrome Forecast
Issued by NWS Wilmington, OH

Current Version | Previous Version | Graphics & Text | Print | Product List | Glossary On
Versions: 1 2 3 4 5 6 7 8 9 10 11 12 13 14 15 16 17 18 19 20 21 22 23 24 25 26 27
000
FTUS41 KILN 270300 AAA
TAFILN
TAF AMD
KILN 270310Z 2703/2724 21005KT P6SM VCSH BKN040 OVC150
      TEMPO 2703/2705 3SM -TSRA OVC020CB
     FM270900 20008KT P6SM VCSH SCT035 OVC080
     FM271600 23011G19KT P6SM -SHRA VCTS BKN035CB
     FM272300 28015G25KT P6SM SCT040 BKN200=

USA.gov is the U.S. government's official web portal to all federal, state and local government web resources and services.